createdAt,value
2019-01-31T00:02:57.871Z,98415.41
2019-01-31T00:08:12.692Z,98412.02
2019-01-31T00:13:37.639Z,98413.25
2019-01-31T00:18:53.120Z,98416.63
2019-01-31T00:24:08.531Z,98424.33
2019-01-31T00:29:36.075Z,98427.09
2019-01-31T00:35:06.203Z,98426.94
2019-01-31T00:40:15.449Z,98430.48
2019-01-31T00:45:40.388Z,98433.86
2019-01-31T00:50:49.922Z,98440.02
2019-01-31T00:55:56.436Z,98440.02
2019-01-31T01:01:15.098Z,98444.01
2019-01-31T01:11:55.992Z,98445.84
2019-01-31T01:17:13.790Z,98458.15
2019-01-31T01:22:23.197Z,98460.30
2019-01-31T01:27:49.388Z,98464.30
2019-01-31T01:32:55.925Z,98463.20
2019-01-31T01:38:20.683Z,98465.53
2019-01-31T01:43:35.932Z,98476.45
2019-01-31T01:48:54.208Z,98471.52
2019-01-31T01:54:18.950Z,98469.66
2019-01-31T01:59:46.306Z,98469.81
2019-01-31T02:05:04.696Z,98466.14
2019-01-31T02:10:17.322Z,98470.91
2019-01-31T02:15:26.359Z,98465.05
2019-01-31T02:21:00.012Z,98461.51
2019-01-31T02:26:18.430Z,98462.12
2019-01-31T02:31:27.396Z,98464.12
2019-01-31T02:36:39.797Z,98453.49
2019-01-31T02:42:01.402Z,98457.48
2019-01-31T02:47:16.907Z,98460.25
2019-01-31T02:52:49.034Z,98458.87
2019-01-31T02:58:12.098Z,98460.13
2019-01-31T03:03:21.589Z,98470.42
2019-01-31T03:08:33.870Z,98468.27
2019-01-31T03:13:43.296Z,98473.64
2019-01-31T03:18:58.410Z,98472.70
2019-01-31T03:24:16.999Z,98482.56
2019-01-31T03:29:29.472Z,98483.78
2019-01-31T03:34:54.174Z,98481.02
2019-01-31T03:40:15.470Z,98487.16
2019-01-31T03:45:42.934Z,98480.85
2019-01-31T03:51:00.906Z,98480.56
2019-01-31T03:56:16.469Z,98479.34
2019-01-31T04:01:37.647Z,98485.94
2019-01-31T04:06:41.119Z,98493.02
2019-01-31T04:11:44.610Z,98490.86
2019-01-31T04:16:48.086Z,98493.02
2019-01-31T04:21:51.569Z,98497.02
2019-01-31T04:26:55.061Z,98495.02
2019-01-31T04:31:58.535Z,98491.48
2019-01-31T04:37:02.018Z,98500.39
2019-01-31T04:42:05.526Z,98504.55
2019-01-31T04:47:08.993Z,98505.80
2019-01-31T04:52:12.480Z,98508.41
2019-01-31T04:57:15.961Z,98507.03
2019-01-31T05:02:19.442Z,98510.73
2019-01-31T05:07:22.927Z,98510.89
2019-01-31T05:12:26.407Z,98519.97
2019-01-31T05:17:29.885Z,98522.73
2019-01-31T05:22:33.363Z,98521.19
2019-01-31T05:27:36.851Z,98521.03
2019-01-31T05:32:40.333Z,98519.03
2019-01-31T05:37:43.819Z,98529.50
2019-01-31T05:42:47.301Z,98527.79
2019-01-31T05:47:50.782Z,98522.25
2019-01-31T05:52:54.270Z,98528.11
2019-01-31T05:57:57.751Z,98537.19
2019-01-31T06:03:01.237Z,98537.19
2019-01-31T06:08:04.897Z,98536.58
2019-01-31T06:13:08.376Z,98534.42
2019-01-31T06:18:11.906Z,98537.80
2019-01-31T06:23:15.370Z,98533.04
2019-01-31T06:28:18.837Z,98543.34
2019-01-31T06:33:22.769Z,98541.19
2019-01-31T06:38:26.233Z,98553.48
2019-01-31T06:43:29.703Z,98559.02
2019-01-31T06:48:34.091Z,98568.38
2019-01-31T06:53:37.712Z,98573.14
2019-01-31T06:58:41.349Z,98582.67
2019-01-31T07:03:44.824Z,98586.83
2019-01-31T07:08:48.291Z,98586.70
2019-01-31T07:13:51.756Z,98589.14
2019-01-31T07:18:55.233Z,98594.67
2019-01-31T07:23:58.693Z,98597.28
2019-01-31T07:29:02.528Z,98595.73
2019-01-31T07:34:06.009Z,98591.74
2019-01-31T07:39:09.612Z,98594.23
2019-01-31T07:44:13.078Z,98597.16
2019-01-31T07:49:16.613Z,98594.07
2019-01-31T07:54:20.079Z,98601.60
2019-01-31T07:59:23.553Z,98599.61
2019-01-31T08:04:27.017Z,98589.68
2019-01-31T08:09:30.481Z,98600.48
2019-01-31T08:14:33.948Z,98606.21
2019-01-31T08:19:37.419Z,98608.81
2019-01-31T08:24:40.885Z,98614.27
2019-01-31T08:29:44.352Z,98612.63
2019-01-31T08:34:47.812Z,98614.84
2019-01-31T08:39:51.287Z,98620.56
2019-01-31T08:44:54.753Z,98616.42
2019-01-31T08:49:58.220Z,98613.55
2019-01-31T08:55:01.687Z,98619.57
2019-01-31T09:00:11.849Z,98619.09
2019-01-31T09:05:15.653Z,98612.67
2019-01-31T09:10:30.629Z,98619.14
2019-01-31T09:15:34.095Z,98620.69
2019-01-31T09:20:40.610Z,98627.13
2019-01-31T09:26:14.191Z,98632.05
2019-01-31T09:31:23.255Z,98622.64
2019-01-31T09:36:50.918Z,98622.64
2019-01-31T09:42:03.313Z,98639.34
2019-01-31T09:47:18.853Z,98633.64
2019-01-31T09:52:41.591Z,98642.27
2019-01-31T09:57:56.811Z,98647.19
2019-01-31T10:03:24.565Z,98642.88
2019-01-31T10:08:33.802Z,98650.13
2019-01-31T10:14:13.221Z,98646.27
2019-01-31T10:19:46.677Z,98645.98
2019-01-31T10:25:16.479Z,98649.25
2019-01-31T10:30:40.342Z,98655.56
2019-01-31T10:36:15.284Z,98648.10
2019-01-31T10:41:47.716Z,98644.92
2019-01-31T10:46:57.099Z,98639.45
2019-01-31T10:52:03.611Z,98627.89
2019-01-31T10:57:36.194Z,98625.31
2019-01-31T11:02:57.591Z,98631.03
2019-01-31T11:08:25.066Z,98634.92
2019-01-31T11:13:39.940Z,98628.84
2019-01-31T11:19:12.466Z,98628.25
2019-01-31T11:24:19.325Z,98617.81
2019-01-31T11:29:28.704Z,98608.01
2019-01-31T11:34:58.303Z,98605.09
2019-01-31T11:40:19.687Z,98594.36
2019-01-31T11:45:32.009Z,98600.55
2019-01-31T11:50:53.803Z,98587.20
2019-01-31T11:56:09.195Z,98594.16
2019-01-31T12:01:12.833Z,98588.47
2019-01-31T12:06:16.372Z,98584.20
2019-01-31T12:11:19.835Z,98581.11
2019-01-31T12:16:23.348Z,98580.55
2019-01-31T12:21:26.841Z,98580.68
2019-01-31T12:26:30.294Z,98578.23
2019-01-31T12:31:33.830Z,98577.78
2019-01-31T12:36:37.302Z,98571.35
2019-01-31T12:41:40.766Z,98550.23
2019-01-31T12:46:44.307Z,98550.23
2019-01-31T12:51:47.773Z,98559.22
2019-01-31T12:56:51.245Z,98559.52
2019-01-31T13:01:54.710Z,98554.14
2019-01-31T13:06:58.254Z,98541.23
2019-01-31T13:12:01.716Z,98544.77
2019-01-31T13:17:07.029Z,98545.25
2019-01-31T13:22:10.495Z,98542.00
2019-01-31T13:27:14.000Z,98544.77
2019-01-31T13:32:17.464Z,98542.77
2019-01-31T13:37:20.928Z,98540.17
2019-01-31T13:42:24.399Z,98547.25
2019-01-31T13:47:27.874Z,98541.42
2019-01-31T13:52:31.339Z,98543.88
2019-01-31T13:57:34.796Z,98540.65
2019-01-31T14:02:38.265Z,98537.11
2019-01-31T14:07:41.799Z,98535.72
2019-01-31T14:12:46.122Z,98532.50
2019-01-31T14:17:49.587Z,98538.20
2019-01-31T14:22:53.392Z,98545.28
2019-01-31T14:27:56.860Z,98537.75
2019-01-31T14:33:01.035Z,98542.03
2019-01-31T14:38:05.042Z,98542.52
2019-01-31T14:43:08.500Z,98550.22
2019-01-31T14:48:11.964Z,98545.90
2019-01-31T14:53:15.487Z,98545.90
2019-01-31T14:58:20.023Z,98536.20
2019-01-31T15:03:23.603Z,98534.66
2019-01-31T15:08:27.073Z,98536.05
2019-01-31T15:13:30.563Z,98536.05
2019-01-31T15:18:34.034Z,98523.88
2019-01-31T15:23:37.495Z,98528.51
2019-01-31T15:28:40.970Z,98524.35
2019-01-31T15:33:44.437Z,98525.13
2019-01-31T15:38:47.972Z,98523.77
2019-01-31T15:43:51.435Z,98528.23
2019-01-31T15:48:54.900Z,98533.61
2019-01-31T15:53:58.369Z,98541.18
2019-01-31T15:59:01.942Z,98537.47
2019-01-31T16:04:05.566Z,98536.59
2019-01-31T16:09:09.295Z,98531.95
2019-01-31T16:14:12.795Z,98530.73
2019-01-31T16:19:16.816Z,98529.95
2019-01-31T16:24:20.287Z,98532.73
2019-01-31T16:29:23.902Z,98527.95
2019-01-31T16:34:28.126Z,98531.50
2019-01-31T16:39:31.677Z,98514.08
2019-01-31T16:44:35.136Z,98522.25
2019-01-31T16:49:38.608Z,98530.56
2019-01-31T16:54:42.151Z,98521.20
2019-01-31T16:59:45.611Z,98520.39
2019-01-31T17:04:49.149Z,98525.67
2019-01-31T17:09:52.614Z,98520.87
2019-01-31T17:14:56.105Z,98512.27
2019-01-31T17:19:59.642Z,98513.19
2019-01-31T17:25:03.516Z,98506.87
2019-01-31T17:30:12.995Z,98503.80
2019-01-31T17:35:16.701Z,98506.09
2019-01-31T17:40:23.210Z,98502.25
2019-01-31T17:45:30.354Z,98494.87
2019-01-31T17:50:32.130Z,98494.25
2019-01-31T17:55:35.593Z,98487.48
2019-01-31T18:00:48.069Z,98487.03
2019-01-31T18:05:51.773Z,98486.39
2019-01-31T18:10:55.320Z,98481.48
2019-01-31T18:15:59.035Z,98483.48
2019-01-31T18:21:02.574Z,98477.78
2019-01-31T18:26:06.380Z,98485.48
2019-01-31T18:31:09.849Z,98471.02
2019-01-31T18:36:13.316Z,98470.70
2019-01-31T18:41:16.921Z,98477.63
2019-01-31T18:46:21.246Z,98476.39
2019-01-31T18:51:25.293Z,98474.70
2019-01-31T18:56:29.501Z,98474.70
2019-01-31T19:01:33.638Z,98468.99
2019-01-31T19:06:37.870Z,98474.99
2019-01-31T19:11:41.698Z,98475.61
2019-01-31T19:16:45.741Z,98476.99
2019-01-31T19:21:49.850Z,98471.16
2019-01-31T19:26:54.086Z,98477.32
2019-01-31T19:31:58.616Z,98475.16
2019-01-31T19:37:03.428Z,98471.62
2019-01-31T19:42:07.597Z,98465.77
2019-01-31T19:47:12.139Z,98467.92
2019-01-31T19:52:16.573Z,98466.98
2019-01-31T19:57:20.709Z,98467.60
2019-01-31T20:02:25.241Z,98458.39
2019-01-31T20:07:29.985Z,98462.55
2019-01-31T20:12:34.761Z,98463.16
2019-01-31T20:17:39.291Z,98458.23
2019-01-31T20:22:43.917Z,98460.39
2019-01-31T20:27:48.864Z,98461.77
2019-01-31T20:32:53.809Z,98447.77
2019-01-31T20:37:58.152Z,98441.26
2019-01-31T20:43:03.062Z,98436.33
2019-01-31T20:48:07.634Z,98436.67
2019-01-31T20:53:12.451Z,98432.17
2019-01-31T20:58:17.323Z,98434.95
2019-01-31T21:03:24.707Z,98425.09
2019-01-31T21:08:27.953Z,98429.09
2019-01-31T21:13:32.295Z,98420.77
2019-01-31T21:18:36.619Z,98419.27
2019-01-31T21:23:40.445Z,98424.64
2019-01-31T21:28:44.052Z,98418.95
2019-01-31T21:33:47.511Z,98414.79
2019-01-31T21:38:52.755Z,98410.48
2019-01-31T21:43:56.225Z,98414.63
2019-01-31T21:48:59.688Z,98404.78
2019-01-31T21:54:03.297Z,98402.63
2019-01-31T21:59:08.947Z,98401.69
2019-01-31T22:04:12.156Z,98394.77
2019-01-31T22:09:15.628Z,98395.38
2019-01-31T22:14:19.164Z,98391.09
2019-01-31T22:19:22.628Z,98380.63
2019-01-31T22:24:26.096Z,98372.16
2019-01-31T22:29:29.567Z,98363.69
2019-01-31T22:34:33.106Z,98362.92
2019-01-31T22:39:36.647Z,98361.53
2019-01-31T22:44:40.109Z,98349.37
2019-01-31T22:49:43.579Z,98348.91
2019-01-31T22:54:47.128Z,98334.29
2019-01-31T22:59:50.597Z,98327.05
2019-01-31T23:04:54.064Z,98328.44
2019-01-31T23:09:57.535Z,98331.84
2019-01-31T23:15:01.011Z,98324.15
2019-01-31T23:20:07.832Z,98325.99
2019-01-31T23:25:11.467Z,98309.22
2019-01-31T23:30:16.370Z,98314.59
2019-01-31T23:35:19.833Z,98310.45
2019-01-31T23:40:23.298Z,98313.06
2019-01-31T23:45:26.761Z,98317.06
2019-01-31T23:50:30.223Z,98315.67
2019-01-31T23:55:33.689Z,98300.92
